Humidity-temperature Sensor

Selected Measurement Type: Air Temperature

 
Air Temperature [°C]     6 entries per hour
Showing data from 3/4/2016 (00:00:00 Z) to 3/1/2016 (00:01:00 Z)
Previous Next [ Day | 3-Days | 7-Days ]
First Last
Prev [ Day | 3-Days | 7-Days ] Next
First Last

Start Time:     :
End Time:     :     
Time (in GMT) :00 :50 :40 :30 :20 :10
Previous Next [ Day | 3-Days | 7-Days ]
First Last
Prev [ Day | 3-Days | 7-Days ] Next
First Last


123 => good data
MM => data is determined as missing
-- => data not received/configured
Back to Top Back to Top
3/4/2016 00:00 to 23:10 27.03 27.01 26.94 27.07 26.98 26.97
3/3/2016 23:00 to 22:10 27.04 27.05 27.04 26.99 27.01 26.98
3/3/2016 22:00 to 21:10 26.92 26.87 27.00 26.97 27.35 27.46
3/3/2016 21:00 to 20:10 27.50 27.43 27.47 27.56 27.61 27.57
3/3/2016 20:00 to 19:10 27.57 27.56 27.49 27.41 27.43 27.39
3/3/2016 19:00 to 18:10 27.27 27.19 27.07 27.00 27.09 27.03
3/3/2016 18:00 to 17:10 26.96 26.69 26.58 26.52 26.54 26.47
3/3/2016 17:00 to 16:10 26.23 26.03 25.95 25.89 25.95 25.78
3/3/2016 16:00 to 15:10 25.77 25.77 25.75 25.63 25.60 25.62
3/3/2016 15:00 to 14:10 25.57 25.58 25.95 25.81 25.68 25.58
3/3/2016 14:00 to 13:10 25.52 25.49 25.44 25.60 25.57 25.63
3/3/2016 13:00 to 12:10 25.64 25.54 25.45 25.33 25.28 25.16
3/3/2016 12:00 to 11:10 25.23 25.26 25.14 25.33 25.73 26.07
3/3/2016 11:00 to 10:10 26.00 25.95 26.15 25.96 26.01 26.27
3/3/2016 10:00 to 9:10 26.49 26.62 26.67 26.83 26.77 26.63
3/3/2016 09:00 to 8:10 26.79 27.05 27.23 27.24 27.33 27.40
3/3/2016 08:00 to 7:10 27.52 27.51 27.55 27.63 27.77 27.67
3/3/2016 07:00 to 6:10 27.70 27.68 27.65 27.63 27.56 27.47
3/3/2016 06:00 to 5:10 27.43 27.39 27.38 27.42 27.43 27.44
3/3/2016 05:00 to 4:10 27.38 27.24 27.18 27.32 27.25 27.24
3/3/2016 04:00 to 3:10 27.19 27.15 27.01 27.01 26.81 26.62
3/3/2016 03:00 to 2:10 26.40 26.17 26.14 26.06 26.26 26.70
3/3/2016 02:00 to 1:10 27.56 28.52 28.59 28.53 28.51 28.53
3/3/2016 01:00 to 0:10 28.49 28.51 28.42 28.39 28.42 28.35
3/3/2016 00:00 to 23:10 28.39 28.35 28.33 28.29 28.28 28.35
3/2/2016 23:00 to 22:10 28.32 28.32 28.28 28.26 28.27 28.26
3/2/2016 22:00 to 21:10 28.22 28.17 28.12 28.13 28.11 28.07
3/2/2016 21:00 to 20:10 28.06 28.05 28.11 28.08 28.00 27.99
3/2/2016 20:00 to 19:10 27.90 27.92 27.87 27.95 27.95 28.04
3/2/2016 19:00 to 18:10 28.05 28.14 28.16 28.09 28.12 28.15
3/2/2016 18:00 to 17:10 28.18 28.18 27.91 27.64 27.64 27.70
3/2/2016 17:00 to 16:10 27.94 27.86 28.22 28.31 28.08 27.72
3/2/2016 16:00 to 15:10 27.56 27.33 27.29 27.28 27.29 27.30
3/2/2016 15:00 to 14:10 27.29 27.29 27.30 27.32 27.31 27.31
3/2/2016 14:00 to 13:10 27.33 27.33 27.30 27.34 27.32 27.33
3/2/2016 13:00 to 12:10 27.36 27.34 27.38 27.38 27.36 27.40
3/2/2016 12:00 to 11:10 27.42 27.39 27.41 27.44 27.43 27.44
3/2/2016 11:00 to 10:10 27.45 27.48 27.48 27.51 27.55 27.57
3/2/2016 10:00 to 9:10 27.57 27.63 27.65 27.65 27.66 27.68
3/2/2016 09:00 to 8:10 27.72 27.77 27.78 27.81 27.84 27.84
3/2/2016 08:00 to 7:10 27.84 27.85 27.89 27.91 27.93 27.98
3/2/2016 07:00 to 6:10 28.00 28.05 28.08 28.11 28.13 28.12
3/2/2016 06:00 to 5:10 28.16 28.17 28.18 28.19 28.19 28.18
3/2/2016 05:00 to 4:10 28.17 28.19 28.19 28.22 28.24 28.20
3/2/2016 04:00 to 3:10 28.17 28.17 28.17 28.21 28.24 28.29
3/2/2016 03:00 to 2:10 -- -- -- -- -- --
3/2/2016 02:00 to 1:10 28.54 28.45 28.41 28.37 28.38 28.35
3/2/2016 01:00 to 0:10 28.30 28.30 28.22 28.27 28.23 28.20
3/2/2016 00:00 to 23:10 28.16 28.21 28.16 28.10 28.12 28.09
3/1/2016 23:00 to 22:10 28.07 28.04 28.02 28.02 27.96 27.90
3/1/2016 22:00 to 21:10 27.90 27.94 27.91 27.87 27.91 27.88
3/1/2016 21:00 to 20:10 27.89 27.86 27.84 27.86 27.89 27.88
3/1/2016 20:00 to 19:10 27.92 27.86 27.86 27.91 27.93 27.96
3/1/2016 19:00 to 18:10 28.00 27.97 28.02 28.03 28.04 28.08
3/1/2016 18:00 to 17:10 28.12 28.15 28.16 28.16 28.18 28.23
3/1/2016 17:00 to 16:10 28.19 28.18 28.14 28.06 27.97 27.63
3/1/2016 16:00 to 15:10 27.56 27.45 27.41 27.40 27.43 27.39
3/1/2016 15:00 to 14:10 27.40 27.42 27.43 27.45 27.44 27.43
3/1/2016 14:00 to 13:10 27.44 27.46 27.43 27.43 27.44 27.44
3/1/2016 13:00 to 12:10 27.44 27.46 27.43 27.44 27.42 27.37
3/1/2016 12:00 to 11:10 27.34 27.37 27.40 27.39 27.39 27.35
3/1/2016 11:00 to 10:10 27.38 27.37 27.38 27.41 27.43 27.43
3/1/2016 10:00 to 9:10 27.44 27.45 27.48 27.49 27.49 27.53
3/1/2016 09:00 to 8:10 27.56 27.58 27.59 27.63 27.61 27.63
3/1/2016 08:00 to 7:10 27.61 27.63 27.66 27.66 27.68 27.69
3/1/2016 07:00 to 6:10 27.71 27.72 27.74 27.77 27.77 27.78
3/1/2016 06:00 to 5:10 27.79 27.80 27.80 27.84 27.85 27.81
3/1/2016 05:00 to 4:10 27.85 27.85 27.85 27.83 27.87 27.87
3/1/2016 04:00 to 3:10 27.88 27.87 27.87 27.92 28.04 28.11
3/1/2016 03:00 to 2:10 28.04 27.94 27.95 28.08 28.10 28.09
3/1/2016 02:00 to 1:10 28.10 28.13 28.16 28.11 28.07 28.01
3/1/2016 01:00 to 0:10 28.02 28.02 28.01 28.00 27.97 27.93